sensor_id;sensor_type;location;lat;lon;timestamp;P1;durP1;ratioP1;P2;durP2;ratioP2
82711;SDS011;72433;41.992;21.438;2023-11-21T00:01:25;67.65;;;41.35;;
82711;SDS011;72433;41.992;21.438;2023-11-21T00:03:51;74.25;;;42.95;;
82711;SDS011;72433;41.992;21.438;2023-11-21T00:06:20;67.72;;;39.03;;
82711;SDS011;72433;41.992;21.438;2023-11-21T00:08:46;78.00;;;43.75;;
82711;SDS011;72433;41.992;21.438;2023-11-21T00:11:12;72.15;;;45.20;;
82711;SDS011;72433;41.992;21.438;2023-11-21T00:13:38;73.38;;;44.30;;
82711;SDS011;72433;41.992;21.438;2023-11-21T00:16:04;73.45;;;46.85;;
82711;SDS011;72433;41.992;21.438;2023-11-21T00:18:32;73.45;;;42.40;;
82711;SDS011;72433;41.992;21.438;2023-11-21T00:20:58;73.57;;;46.35;;
82711;SDS011;72433;41.992;21.438;2023-11-21T00:23:24;78.80;;;46.60;;
82711;SDS011;72433;41.992;21.438;2023-11-21T00:25:50;76.32;;;47.17;;
82711;SDS011;72433;41.992;21.438;2023-11-21T00:28:17;79.50;;;45.90;;
82711;SDS011;72433;41.992;21.438;2023-11-21T00:30:43;75.82;;;43.92;;
82711;SDS011;72433;41.992;21.438;2023-11-21T00:33:10;63.20;;;39.00;;
82711;SDS011;72433;41.992;21.438;2023-11-21T00:35:36;62.67;;;40.20;;
82711;SDS011;72433;41.992;21.438;2023-11-21T00:38:02;64.63;;;37.95;;
82711;SDS011;72433;41.992;21.438;2023-11-21T00:40:28;58.40;;;34.85;;
82711;SDS011;72433;41.992;21.438;2023-11-21T00:42:54;62.17;;;37.60;;
82711;SDS011;72433;41.992;21.438;2023-11-21T00:45:21;60.08;;;35.67;;
82711;SDS011;72433;41.992;21.438;2023-11-21T00:47:47;62.78;;;35.08;;
82711;SDS011;72433;41.992;21.438;2023-11-21T00:50:13;60.95;;;37.75;;
82711;SDS011;72433;41.992;21.438;2023-11-21T00:52:40;63.33;;;35.15;;
82711;SDS011;72433;41.992;21.438;2023-11-21T00:55:07;64.03;;;40.75;;
82711;SDS011;72433;41.992;21.438;2023-11-21T00:57:34;62.92;;;39.08;;
82711;SDS011;72433;41.992;21.438;2023-11-21T01:00:00;65.57;;;40.17;;
82711;SDS011;72433;41.992;21.438;2023-11-21T01:02:27;63.83;;;39.30;;
82711;SDS011;72433;41.992;21.438;2023-11-21T01:04:54;61.35;;;38.65;;
82711;SDS011;72433;41.992;21.438;2023-11-21T01:07:20;57.60;;;33.60;;
82711;SDS011;72433;41.992;21.438;2023-11-21T01:09:46;63.30;;;37.75;;
82711;SDS011;72433;41.992;21.438;2023-11-21T01:12:12;61.13;;;35.25;;
82711;SDS011;72433;41.992;21.438;2023-11-21T01:14:38;56.38;;;33.05;;
82711;SDS011;72433;41.992;21.438;2023-11-21T01:17:04;52.85;;;32.33;;
82711;SDS011;72433;41.992;21.438;2023-11-21T01:19:30;53.38;;;34.13;;
82711;SDS011;72433;41.992;21.438;2023-11-21T01:21:56;61.13;;;35.95;;
82711;SDS011;72433;41.992;21.438;2023-11-21T01:24:23;61.40;;;32.35;;
82711;SDS011;72433;41.992;21.438;2023-11-21T01:26:49;63.78;;;35.58;;
82711;SDS011;72433;41.992;21.438;2023-11-21T01:29:17;57.33;;;36.50;;
82711;SDS011;72433;41.992;21.438;2023-11-21T01:31:43;56.83;;;36.90;;
82711;SDS011;72433;41.992;21.438;2023-11-21T01:34:09;66.90;;;36.78;;
82711;SDS011;72433;41.992;21.438;2023-11-21T01:36:35;58.80;;;35.15;;
82711;SDS011;72433;41.992;21.438;2023-11-21T01:39:01;69.13;;;37.60;;
82711;SDS011;72433;41.992;21.438;2023-11-21T01:41:32;60.90;;;35.47;;
82711;SDS011;72433;41.992;21.438;2023-11-21T01:43:59;61.10;;;37.75;;
82711;SDS011;72433;41.992;21.438;2023-11-21T01:46:26;61.70;;;37.38;;
82711;SDS011;72433;41.992;21.438;2023-11-21T01:48:53;58.47;;;37.20;;
82711;SDS011;72433;41.992;21.438;2023-11-21T01:51:22;60.42;;;37.67;;
82711;SDS011;72433;41.992;21.438;2023-11-21T01:53:49;62.67;;;37.35;;
82711;SDS011;72433;41.992;21.438;2023-11-21T01:56:15;63.80;;;39.83;;
82711;SDS011;72433;41.992;21.438;2023-11-21T01:58:42;68.78;;;40.40;;
82711;SDS011;72433;41.992;21.438;2023-11-21T02:01:08;65.57;;;40.45;;
82711;SDS011;72433;41.992;21.438;2023-11-21T02:03:35;70.20;;;40.85;;
82711;SDS011;72433;41.992;21.438;2023-11-21T02:06:01;67.45;;;38.85;;
82711;SDS011;72433;41.992;21.438;2023-11-21T02:08:27;61.55;;;38.83;;
82711;SDS011;72433;41.992;21.438;2023-11-21T02:10:54;60.80;;;34.50;;
82711;SDS011;72433;41.992;21.438;2023-11-21T02:13:20;61.35;;;37.08;;
82711;SDS011;72433;41.992;21.438;2023-11-21T02:15:46;66.05;;;41.15;;
82711;SDS011;72433;41.992;21.438;2023-11-21T02:18:14;61.30;;;36.88;;
82711;SDS011;72433;41.992;21.438;2023-11-21T02:20:41;62.47;;;38.72;;
82711;SDS011;72433;41.992;21.438;2023-11-21T02:23:07;69.68;;;39.53;;
82711;SDS011;72433;41.992;21.438;2023-11-21T02:25:33;66.97;;;39.78;;
82711;SDS011;72433;41.992;21.438;2023-11-21T02:28:02;62.78;;;40.78;;
82711;SDS011;72433;41.992;21.438;2023-11-21T02:30:29;70.38;;;39.25;;
82711;SDS011;72433;41.992;21.438;2023-11-21T02:32:58;65.22;;;37.45;;
82711;SDS011;72433;41.992;21.438;2023-11-21T02:35:24;60.83;;;36.22;;
82711;SDS011;72433;41.992;21.438;2023-11-21T02:37:56;59.50;;;34.65;;
82711;SDS011;72433;41.992;21.438;2023-11-21T02:40:22;59.03;;;34.85;;
82711;SDS011;72433;41.992;21.438;2023-11-21T02:42:50;61.90;;;34.05;;
82711;SDS011;72433;41.992;21.438;2023-11-21T02:45:16;58.97;;;34.20;;
82711;SDS011;72433;41.992;21.438;2023-11-21T02:47:43;56.22;;;32.75;;
82711;SDS011;72433;41.992;21.438;2023-11-21T02:50:09;62.58;;;36.15;;
82711;SDS011;72433;41.992;21.438;2023-11-21T02:52:35;68.90;;;40.78;;
82711;SDS011;72433;41.992;21.438;2023-11-21T02:55:02;69.75;;;41.92;;
82711;SDS011;72433;41.992;21.438;2023-11-21T02:57:28;64.20;;;40.47;;
82711;SDS011;72433;41.992;21.438;2023-11-21T02:59:54;72.15;;;40.78;;
82711;SDS011;72433;41.992;21.438;2023-11-21T03:02:20;69.72;;;41.92;;
82711;SDS011;72433;41.992;21.438;2023-11-21T03:04:47;74.72;;;43.15;;
82711;SDS011;72433;41.992;21.438;2023-11-21T03:07:14;71.30;;;41.65;;
82711;SDS011;72433;41.992;21.438;2023-11-21T03:09:40;73.25;;;42.15;;
82711;SDS011;72433;41.992;21.438;2023-11-21T03:12:07;67.47;;;42.10;;
82711;SDS011;72433;41.992;21.438;2023-11-21T03:14:34;65.93;;;40.20;;
82711;SDS011;72433;41.992;21.438;2023-11-21T03:17:00;69.13;;;41.88;;
82711;SDS011;72433;41.992;21.438;2023-11-21T03:19:26;66.25;;;42.17;;
82711;SDS011;72433;41.992;21.438;2023-11-21T03:21:52;66.65;;;41.58;;
82711;SDS011;72433;41.992;21.438;2023-11-21T03:24:18;71.55;;;40.97;;
82711;SDS011;72433;41.992;21.438;2023-11-21T03:26:45;65.93;;;39.10;;
82711;SDS011;72433;41.992;21.438;2023-11-21T03:29:15;65.72;;;37.50;;
82711;SDS011;72433;41.992;21.438;2023-11-21T03:31:42;56.22;;;36.78;;
82711;SDS011;72433;41.992;21.438;2023-11-21T03:34:11;50.47;;;32.03;;
82711;SDS011;72433;41.992;21.438;2023-11-21T03:36:37;48.13;;;32.22;;
82711;SDS011;72433;41.992;21.438;2023-11-21T03:39:03;52.28;;;33.75;;
82711;SDS011;72433;41.992;21.438;2023-11-21T03:41:30;54.45;;;34.50;;
82711;SDS011;72433;41.992;21.438;2023-11-21T03:43:56;56.05;;;36.47;;
82711;SDS011;72433;41.992;21.438;2023-11-21T03:46:22;58.45;;;37.85;;
82711;SDS011;72433;41.992;21.438;2023-11-21T03:48:48;61.85;;;38.67;;
82711;SDS011;72433;41.992;21.438;2023-11-21T03:51:15;59.72;;;38.15;;
82711;SDS011;72433;41.992;21.438;2023-11-21T03:53:41;57.42;;;36.75;;
82711;SDS011;72433;41.992;21.438;2023-11-21T03:56:07;61.80;;;37.33;;
82711;SDS011;72433;41.992;21.438;2023-11-21T03:58:33;58.25;;;37.10;;
82711;SDS011;72433;41.992;21.438;2023-11-21T04:00:59;57.35;;;35.95;;
82711;SDS011;72433;41.992;21.438;2023-11-21T04:03:26;59.55;;;36.67;;
82711;SDS011;72433;41.992;21.438;2023-11-21T04:05:52;57.40;;;37.38;;
82711;SDS011;72433;41.992;21.438;2023-11-21T04:08:18;61.42;;;35.47;;
82711;SDS011;72433;41.992;21.438;2023-11-21T04:10:44;54.08;;;34.72;;
82711;SDS011;72433;41.992;21.438;2023-11-21T04:13:11;52.63;;;35.53;;
82711;SDS011;72433;41.992;21.438;2023-11-21T04:15:37;53.85;;;34.00;;
82711;SDS011;72433;41.992;21.438;2023-11-21T04:18:03;54.55;;;35.05;;
82711;SDS011;72433;41.992;21.438;2023-11-21T04:20:29;50.25;;;32.15;;
82711;SDS011;72433;41.992;21.438;2023-11-21T04:22:55;58.50;;;35.65;;
82711;SDS011;72433;41.992;21.438;2023-11-21T04:25:22;49.13;;;32.40;;
82711;SDS011;72433;41.992;21.438;2023-11-21T04:27:48;58.40;;;35.60;;
82711;SDS011;72433;41.992;21.438;2023-11-21T04:30:15;51.90;;;33.50;;
82711;SDS011;72433;41.992;21.438;2023-11-21T04:32:41;55.72;;;34.72;;
82711;SDS011;72433;41.992;21.438;2023-11-21T04:35:08;59.17;;;35.55;;
82711;SDS011;72433;41.992;21.438;2023-11-21T04:37:34;53.47;;;32.65;;
82711;SDS011;72433;41.992;21.438;2023-11-21T04:40:00;63.42;;;36.50;;
82711;SDS011;72433;41.992;21.438;2023-11-21T04:42:29;45.58;;;30.58;;
82711;SDS011;72433;41.992;21.438;2023-11-21T04:44:55;55.05;;;34.08;;
82711;SDS011;72433;41.992;21.438;2023-11-21T04:47:21;55.42;;;33.50;;
82711;SDS011;72433;41.992;21.438;2023-11-21T04:49:47;55.35;;;33.90;;
82711;SDS011;72433;41.992;21.438;2023-11-21T04:52:13;55.03;;;34.60;;
82711;SDS011;72433;41.992;21.438;2023-11-21T04:54:39;49.72;;;33.08;;
82711;SDS011;72433;41.992;21.438;2023-11-21T04:57:06;51.22;;;34.42;;
82711;SDS011;72433;41.992;21.438;2023-11-21T04:59:35;52.25;;;34.33;;
82711;SDS011;72433;41.992;21.438;2023-11-21T05:02:01;52.13;;;32.78;;
82711;SDS011;72433;41.992;21.438;2023-11-21T05:04:28;51.88;;;33.33;;
82711;SDS011;72433;41.992;21.438;2023-11-21T05:06:54;55.63;;;33.95;;
82711;SDS011;72433;41.992;21.438;2023-11-21T05:09:20;46.67;;;31.23;;
82711;SDS011;72433;41.992;21.438;2023-11-21T05:11:47;52.40;;;29.98;;
82711;SDS011;72433;41.992;21.438;2023-11-21T05:14:13;48.92;;;30.88;;
82711;SDS011;72433;41.992;21.438;2023-11-21T05:16:39;50.25;;;32.72;;
82711;SDS011;72433;41.992;21.438;2023-11-21T05:19:05;47.78;;;28.05;;
82711;SDS011;72433;41.992;21.438;2023-11-21T05:21:31;48.47;;;31.30;;
82711;SDS011;72433;41.992;21.438;2023-11-21T05:24:00;49.15;;;30.25;;
82711;SDS011;72433;41.992;21.438;2023-11-21T05:26:26;50.67;;;30.15;;
82711;SDS011;72433;41.992;21.438;2023-11-21T05:28:52;49.83;;;30.67;;
82711;SDS011;72433;41.992;21.438;2023-11-21T05:31:19;46.10;;;29.63;;
82711;SDS011;72433;41.992;21.438;2023-11-21T05:33:45;50.20;;;28.55;;
82711;SDS011;72433;41.992;21.438;2023-11-21T05:36:14;47.60;;;27.33;;
82711;SDS011;72433;41.992;21.438;2023-11-21T05:38:40;39.83;;;26.58;;
82711;SDS011;72433;41.992;21.438;2023-11-21T05:41:06;43.20;;;26.65;;
82711;SDS011;72433;41.992;21.438;2023-11-21T05:43:36;39.75;;;26.60;;
82711;SDS011;72433;41.992;21.438;2023-11-21T05:46:02;43.03;;;27.13;;
82711;SDS011;72433;41.992;21.438;2023-11-21T05:48:28;43.58;;;26.92;;
82711;SDS011;72433;41.992;21.438;2023-11-21T05:50:54;40.80;;;26.10;;
82711;SDS011;72433;41.992;21.438;2023-11-21T05:53:20;46.90;;;28.38;;
82711;SDS011;72433;41.992;21.438;2023-11-21T05:55:46;42.80;;;28.98;;
82711;SDS011;72433;41.992;21.438;2023-11-21T05:58:13;43.13;;;27.20;;
82711;SDS011;72433;41.992;21.438;2023-11-21T06:00:39;42.65;;;27.52;;
82711;SDS011;72433;41.992;21.438;2023-11-21T06:03:06;42.78;;;25.58;;
82711;SDS011;72433;41.992;21.438;2023-11-21T06:05:33;41.75;;;24.58;;
82711;SDS011;72433;41.992;21.438;2023-11-21T06:08:05;40.08;;;25.98;;
82711;SDS011;72433;41.992;21.438;2023-11-21T06:10:32;44.15;;;27.20;;
82711;SDS011;72433;41.992;21.438;2023-11-21T06:13:06;39.50;;;26.05;;
82711;SDS011;72433;41.992;21.438;2023-11-21T06:15:33;39.13;;;24.50;;
82711;SDS011;72433;41.992;21.438;2023-11-21T06:17:59;42.40;;;26.42;;
82711;SDS011;72433;41.992;21.438;2023-11-21T06:20:25;44.92;;;27.67;;
82711;SDS011;72433;41.992;21.438;2023-11-21T06:22:52;39.40;;;25.67;;
82711;SDS011;72433;41.992;21.438;2023-11-21T06:25:21;47.80;;;27.33;;
82711;SDS011;72433;41.992;21.438;2023-11-21T06:27:48;40.80;;;27.70;;
82711;SDS011;72433;41.992;21.438;2023-11-21T06:30:14;57.13;;;34.53;;
82711;SDS011;72433;41.992;21.438;2023-11-21T06:35:56;50.40;;;30.10;;
82711;SDS011;72433;41.992;21.438;2023-11-21T06:42:03;45.30;;;27.55;;
82711;SDS011;72433;41.992;21.438;2023-11-21T06:51:37;41.25;;;25.70;;
82711;SDS011;72433;41.992;21.438;2023-11-21T06:54:13;46.70;;;26.58;;
82711;SDS011;72433;41.992;21.438;2023-11-21T06:56:42;46.00;;;28.35;;
82711;SDS011;72433;41.992;21.438;2023-11-21T06:59:22;41.25;;;26.38;;
82711;SDS011;72433;41.992;21.438;2023-11-21T07:01:48;42.08;;;26.65;;
82711;SDS011;72433;41.992;21.438;2023-11-21T07:05:02;38.05;;;24.63;;
82711;SDS011;72433;41.992;21.438;2023-11-21T07:07:30;37.90;;;26.00;;
82711;SDS011;72433;41.992;21.438;2023-11-21T07:10:02;41.08;;;26.25;;
82711;SDS011;72433;41.992;21.438;2023-11-21T07:12:33;42.13;;;27.30;;
82711;SDS011;72433;41.992;21.438;2023-11-21T07:15:03;51.72;;;32.42;;
82711;SDS011;72433;41.992;21.438;2023-11-21T07:17:40;63.63;;;36.83;;
82711;SDS011;72433;41.992;21.438;2023-11-21T07:20:12;69.50;;;47.00;;
82711;SDS011;72433;41.992;21.438;2023-11-21T07:23:07;76.35;;;50.35;;
82711;SDS011;72433;41.992;21.438;2023-11-21T07:25:49;67.88;;;41.33;;
82711;SDS011;72433;41.992;21.438;2023-11-21T07:28:49;79.38;;;45.47;;
82711;SDS011;72433;41.992;21.438;2023-11-21T07:31:17;69.65;;;43.78;;
82711;SDS011;72433;41.992;21.438;2023-11-21T07:33:47;73.35;;;43.75;;
82711;SDS011;72433;41.992;21.438;2023-11-21T07:39:26;78.55;;;48.72;;
82711;SDS011;72433;41.992;21.438;2023-11-21T07:47:49;64.78;;;37.63;;
82711;SDS011;72433;41.992;21.438;2023-11-21T07:57:35;58.20;;;38.50;;
82711;SDS011;72433;41.992;21.438;2023-11-21T08:00:02;59.78;;;38.60;;
82711;SDS011;72433;41.992;21.438;2023-11-21T08:02:31;63.40;;;38.08;;
82711;SDS011;72433;41.992;21.438;2023-11-21T08:04:57;62.13;;;37.97;;
82711;SDS011;72433;41.992;21.438;2023-11-21T08:07:26;61.53;;;37.70;;
82711;SDS011;72433;41.992;21.438;2023-11-21T08:16:21;57.33;;;34.63;;
82711;SDS011;72433;41.992;21.438;2023-11-21T08:21:53;63.83;;;38.58;;
82711;SDS011;72433;41.992;21.438;2023-11-21T08:24:20;60.90;;;37.83;;
82711;SDS011;72433;41.992;21.438;2023-11-21T08:27:01;69.68;;;39.85;;
82711;SDS011;72433;41.992;21.438;2023-11-21T08:29:29;64.50;;;39.53;;
82711;SDS011;72433;41.992;21.438;2023-11-21T08:37:36;61.00;;;38.70;;
82711;SDS011;72433;41.992;21.438;2023-11-21T08:40:04;62.28;;;38.22;;
82711;SDS011;72433;41.992;21.438;2023-11-21T08:42:34;66.88;;;43.00;;
82711;SDS011;72433;41.992;21.438;2023-11-21T08:48:05;63.42;;;38.65;;
82711;SDS011;72433;41.992;21.438;2023-11-21T08:53:27;66.82;;;39.30;;
82711;SDS011;72433;41.992;21.438;2023-11-21T08:55:56;63.78;;;41.05;;
82711;SDS011;72433;41.992;21.438;2023-11-21T08:58:35;65.57;;;40.00;;
82711;SDS011;72433;41.992;21.438;2023-11-21T09:01:19;72.57;;;43.50;;
82711;SDS011;72433;41.992;21.438;2023-11-21T09:03:46;64.95;;;41.53;;
82711;SDS011;72433;41.992;21.438;2023-11-21T09:06:21;61.50;;;42.15;;
82711;SDS011;72433;41.992;21.438;2023-11-21T09:09:08;65.75;;;41.10;;
82711;SDS011;72433;41.992;21.438;2023-11-21T09:14:34;72.65;;;43.22;;
82711;SDS011;72433;41.992;21.438;2023-11-21T09:23:31;71.10;;;42.85;;
82711;SDS011;72433;41.992;21.438;2023-11-21T09:31:13;71.90;;;42.38;;
82711;SDS011;72433;41.992;21.438;2023-11-21T09:33:48;72.22;;;41.50;;
82711;SDS011;72433;41.992;21.438;2023-11-21T09:36:35;78.85;;;42.05;;
82711;SDS011;72433;41.992;21.438;2023-11-21T09:39:12;85.03;;;44.45;;
82711;SDS011;72433;41.992;21.438;2023-11-21T09:42:12;70.40;;;42.47;;
82711;SDS011;72433;41.992;21.438;2023-11-21T09:47:46;70.25;;;43.72;;
82711;SDS011;72433;41.992;21.438;2023-11-21T09:50:31;70.25;;;42.70;;
82711;SDS011;72433;41.992;21.438;2023-11-21T09:53:21;73.18;;;45.53;;
82711;SDS011;72433;41.992;21.438;2023-11-21T09:55:58;73.53;;;44.95;;
82711;SDS011;72433;41.992;21.438;2023-11-21T09:58:30;78.63;;;45.65;;
82711;SDS011;72433;41.992;21.438;2023-11-21T10:00:59;75.60;;;44.17;;
82711;SDS011;72433;41.992;21.438;2023-11-21T10:03:31;78.07;;;42.25;;
82711;SDS011;72433;41.992;21.438;2023-11-21T10:09:02;71.28;;;43.05;;
82711;SDS011;72433;41.992;21.438;2023-11-21T10:17:58;77.10;;;44.90;;
82711;SDS011;72433;41.992;21.438;2023-11-21T10:26:43;73.32;;;46.63;;
82711;SDS011;72433;41.992;21.438;2023-11-21T10:29:28;69.95;;;44.90;;
82711;SDS011;72433;41.992;21.438;2023-11-21T10:31:57;82.00;;;47.70;;
82711;SDS011;72433;41.992;21.438;2023-11-21T10:37:29;69.38;;;44.83;;
82711;SDS011;72433;41.992;21.438;2023-11-21T10:43:26;74.90;;;45.33;;
82711;SDS011;72433;41.992;21.438;2023-11-21T10:46:01;75.38;;;45.58;;
82711;SDS011;72433;41.992;21.438;2023-11-21T10:48:30;70.70;;;44.95;;
82711;SDS011;72433;41.992;21.438;2023-11-21T10:51:09;69.80;;;45.33;;
82711;SDS011;72433;41.992;21.438;2023-11-21T10:56:25;77.43;;;46.33;;
82711;SDS011;72433;41.992;21.438;2023-11-21T10:58:55;75.53;;;48.65;;
82711;SDS011;72433;41.992;21.438;2023-11-21T11:01:29;68.80;;;45.03;;
82711;SDS011;72433;41.992;21.438;2023-11-21T11:04:18;73.25;;;46.80;;
82711;SDS011;72433;41.992;21.438;2023-11-21T13:04:51;65.38;;;31.92;;
82711;SDS011;72433;41.992;21.438;2023-11-21T17:27:51;93.20;;;55.53;;
82711;SDS011;72433;41.992;21.438;2023-11-21T17:30:18;99.00;;;59.92;;
82711;SDS011;72433;41.992;21.438;2023-11-21T17:39:19;109.78;;;61.13;;
82711;SDS011;72433;41.992;21.438;2023-11-21T17:41:46;107.15;;;61.63;;
82711;SDS011;72433;41.992;21.438;2023-11-21T17:44:14;103.15;;;55.67;;
82711;SDS011;72433;41.992;21.438;2023-11-21T17:46:44;108.28;;;62.92;;
82711;SDS011;72433;41.992;21.438;2023-11-21T17:49:12;98.93;;;61.40;;
82711;SDS011;72433;41.992;21.438;2023-11-21T17:51:41;108.70;;;62.05;;
82711;SDS011;72433;41.992;21.438;2023-11-21T17:54:13;115.07;;;58.05;;
82711;SDS011;72433;41.992;21.438;2023-11-21T17:56:39;104.38;;;63.03;;
82711;SDS011;72433;41.992;21.438;2023-11-21T17:59:05;106.20;;;64.05;;
82711;SDS011;72433;41.992;21.438;2023-11-21T18:01:39;111.50;;;63.90;;
82711;SDS011;72433;41.992;21.438;2023-11-21T18:04:10;114.45;;;65.88;;
82711;SDS011;72433;41.992;21.438;2023-11-21T18:06:44;117.60;;;65.88;;
82711;SDS011;72433;41.992;21.438;2023-11-21T18:09:11;118.55;;;70.97;;
82711;SDS011;72433;41.992;21.438;2023-11-21T18:11:44;119.75;;;68.72;;
82711;SDS011;72433;41.992;21.438;2023-11-21T18:14:12;119.50;;;73.35;;
82711;SDS011;72433;41.992;21.438;2023-11-21T18:16:38;118.15;;;71.03;;
82711;SDS011;72433;41.992;21.438;2023-11-21T18:19:07;120.53;;;66.68;;
82711;SDS011;72433;41.992;21.438;2023-11-21T18:21:33;115.18;;;71.43;;
82711;SDS011;72433;41.992;21.438;2023-11-21T18:23:59;114.70;;;69.20;;
82711;SDS011;72433;41.992;21.438;2023-11-21T18:26:27;119.05;;;70.22;;
82711;SDS011;72433;41.992;21.438;2023-11-21T18:28:54;107.00;;;67.15;;
82711;SDS011;72433;41.992;21.438;2023-11-21T18:31:20;126.05;;;73.32;;
82711;SDS011;72433;41.992;21.438;2023-11-21T18:33:46;122.30;;;72.05;;
82711;SDS011;72433;41.992;21.438;2023-11-21T18:36:13;126.57;;;74.40;;
82711;SDS011;72433;41.992;21.438;2023-11-21T18:38:42;112.07;;;63.88;;
82711;SDS011;72433;41.992;21.438;2023-11-21T18:41:08;122.10;;;72.22;;
82711;SDS011;72433;41.992;21.438;2023-11-21T18:43:39;120.85;;;71.15;;
82711;SDS011;72433;41.992;21.438;2023-11-21T18:46:06;117.97;;;70.82;;
82711;SDS011;72433;41.992;21.438;2023-11-21T18:48:32;115.00;;;72.15;;
82711;SDS011;72433;41.992;21.438;2023-11-21T18:50:58;113.20;;;69.68;;
82711;SDS011;72433;41.992;21.438;2023-11-21T18:53:26;114.13;;;70.05;;
82711;SDS011;72433;41.992;21.438;2023-11-21T18:55:54;110.03;;;69.60;;
82711;SDS011;72433;41.992;21.438;2023-11-21T18:58:21;111.18;;;71.10;;
82711;SDS011;72433;41.992;21.438;2023-11-21T19:00:47;113.75;;;67.05;;
82711;SDS011;72433;41.992;21.438;2023-11-21T19:03:15;110.47;;;64.30;;
82711;SDS011;72433;41.992;21.438;2023-11-21T19:05:42;111.90;;;66.03;;
82711;SDS011;72433;41.992;21.438;2023-11-21T19:08:08;116.45;;;69.07;;
82711;SDS011;72433;41.992;21.438;2023-11-21T19:10:34;114.65;;;63.20;;
82711;SDS011;72433;41.992;21.438;2023-11-21T19:13:02;111.07;;;68.20;;
82711;SDS011;72433;41.992;21.438;2023-11-21T19:15:30;116.32;;;69.25;;
82711;SDS011;72433;41.992;21.438;2023-11-21T19:17:56;114.93;;;68.55;;
82711;SDS011;72433;41.992;21.438;2023-11-21T19:20:25;117.03;;;68.97;;
82711;SDS011;72433;41.992;21.438;2023-11-21T19:22:51;102.38;;;65.13;;
82711;SDS011;72433;41.992;21.438;2023-11-21T19:25:17;113.38;;;66.75;;
82711;SDS011;72433;41.992;21.438;2023-11-21T19:27:44;107.47;;;65.07;;
82711;SDS011;72433;41.992;21.438;2023-11-21T19:30:10;109.05;;;67.88;;
82711;SDS011;72433;41.992;21.438;2023-11-21T19:32:37;118.95;;;71.88;;
82711;SDS011;72433;41.992;21.438;2023-11-21T19:35:03;120.05;;;68.25;;
82711;SDS011;72433;41.992;21.438;2023-11-21T19:37:30;117.82;;;69.22;;
82711;SDS011;72433;41.992;21.438;2023-11-21T19:39:56;107.55;;;67.80;;
82711;SDS011;72433;41.992;21.438;2023-11-21T19:42:26;102.65;;;61.97;;
82711;SDS011;72433;41.992;21.438;2023-11-21T19:44:52;107.38;;;65.60;;
82711;SDS011;72433;41.992;21.438;2023-11-21T19:47:18;111.82;;;62.70;;
82711;SDS011;72433;41.992;21.438;2023-11-21T19:49:44;105.43;;;60.47;;
82711;SDS011;72433;41.992;21.438;2023-11-21T19:52:13;103.70;;;60.90;;
82711;SDS011;72433;41.992;21.438;2023-11-21T19:54:39;101.38;;;60.22;;
82711;SDS011;72433;41.992;21.438;2023-11-21T19:57:05;95.38;;;57.17;;
82711;SDS011;72433;41.992;21.438;2023-11-21T19:59:36;98.85;;;58.28;;
82711;SDS011;72433;41.992;21.438;2023-11-21T20:02:07;100.75;;;62.10;;
82711;SDS011;72433;41.992;21.438;2023-11-21T20:04:34;106.50;;;62.63;;
82711;SDS011;72433;41.992;21.438;2023-11-21T20:07:01;102.03;;;62.65;;
82711;SDS011;72433;41.992;21.438;2023-11-21T20:09:28;99.82;;;61.45;;
82711;SDS011;72433;41.992;21.438;2023-11-21T20:11:54;97.53;;;59.53;;
82711;SDS011;72433;41.992;21.438;2023-11-21T20:14:23;96.57;;;60.22;;
82711;SDS011;72433;41.992;21.438;2023-11-21T20:16:49;99.53;;;59.88;;
82711;SDS011;72433;41.992;21.438;2023-11-21T20:19:15;103.93;;;60.55;;
82711;SDS011;72433;41.992;21.438;2023-11-21T20:21:45;99.65;;;57.20;;
82711;SDS011;72433;41.992;21.438;2023-11-21T20:24:15;96.88;;;58.25;;
82711;SDS011;72433;41.992;21.438;2023-11-21T20:26:41;94.40;;;60.47;;
82711;SDS011;72433;41.992;21.438;2023-11-21T20:29:09;100.68;;;59.88;;
82711;SDS011;72433;41.992;21.438;2023-11-21T20:31:38;102.28;;;58.08;;
82711;SDS011;72433;41.992;21.438;2023-11-21T20:34:04;100.32;;;60.42;;
82711;SDS011;72433;41.992;21.438;2023-11-21T20:36:31;103.80;;;61.05;;
82711;SDS011;72433;41.992;21.438;2023-11-21T20:38:57;106.70;;;62.42;;
82711;SDS011;72433;41.992;21.438;2023-11-21T20:41:23;110.68;;;63.70;;
82711;SDS011;72433;41.992;21.438;2023-11-21T20:43:49;102.68;;;61.72;;
82711;SDS011;72433;41.992;21.438;2023-11-21T20:46:16;108.43;;;60.95;;
82711;SDS011;72433;41.992;21.438;2023-11-21T20:48:42;98.80;;;56.85;;
82711;SDS011;72433;41.992;21.438;2023-11-21T20:51:09;101.65;;;60.72;;
82711;SDS011;72433;41.992;21.438;2023-11-21T20:53:37;99.93;;;58.58;;
82711;SDS011;72433;41.992;21.438;2023-11-21T20:56:03;102.32;;;60.38;;
82711;SDS011;72433;41.992;21.438;2023-11-21T20:58:30;98.30;;;57.60;;
82711;SDS011;72433;41.992;21.438;2023-11-21T21:00:56;117.93;;;68.38;;
82711;SDS011;72433;41.992;21.438;2023-11-21T21:03:23;116.93;;;73.65;;
82711;SDS011;72433;41.992;21.438;2023-11-21T21:05:49;125.75;;;75.43;;
82711;SDS011;72433;41.992;21.438;2023-11-21T21:08:15;123.07;;;75.68;;
82711;SDS011;72433;41.992;21.438;2023-11-21T21:10:41;121.07;;;74.90;;
82711;SDS011;72433;41.992;21.438;2023-11-21T21:13:07;117.47;;;68.10;;
82711;SDS011;72433;41.992;21.438;2023-11-21T21:15:37;126.32;;;79.95;;
82711;SDS011;72433;41.992;21.438;2023-11-21T21:18:03;126.15;;;73.68;;
82711;SDS011;72433;41.992;21.438;2023-11-21T21:20:31;128.38;;;79.15;;
82711;SDS011;72433;41.992;21.438;2023-11-21T21:22:57;128.55;;;81.70;;
82711;SDS011;72433;41.992;21.438;2023-11-21T21:25:25;130.57;;;83.82;;
82711;SDS011;72433;41.992;21.438;2023-11-21T21:27:51;126.85;;;79.30;;
82711;SDS011;72433;41.992;21.438;2023-11-21T21:30:18;134.20;;;84.57;;
82711;SDS011;72433;41.992;21.438;2023-11-21T21:32:44;133.93;;;82.07;;
82711;SDS011;72433;41.992;21.438;2023-11-21T21:35:12;134.48;;;81.32;;
82711;SDS011;72433;41.992;21.438;2023-11-21T21:37:39;133.18;;;80.35;;
82711;SDS011;72433;41.992;21.438;2023-11-21T21:40:07;135.05;;;84.72;;
82711;SDS011;72433;41.992;21.438;2023-11-21T21:42:34;141.15;;;79.97;;
82711;SDS011;72433;41.992;21.438;2023-11-21T21:45:00;135.90;;;85.80;;
82711;SDS011;72433;41.992;21.438;2023-11-21T21:47:26;129.68;;;84.63;;
82711;SDS011;72433;41.992;21.438;2023-11-21T21:49:52;134.63;;;83.25;;
82711;SDS011;72433;41.992;21.438;2023-11-21T21:52:19;133.18;;;84.93;;
82711;SDS011;72433;41.992;21.438;2023-11-21T21:54:45;139.95;;;88.00;;
82711;SDS011;72433;41.992;21.438;2023-11-21T21:57:11;140.50;;;85.78;;
82711;SDS011;72433;41.992;21.438;2023-11-21T21:59:38;134.90;;;85.00;;
82711;SDS011;72433;41.992;21.438;2023-11-21T22:02:05;142.77;;;88.95;;
82711;SDS011;72433;41.992;21.438;2023-11-21T22:04:32;133.07;;;87.57;;
82711;SDS011;72433;41.992;21.438;2023-11-21T22:07:01;138.13;;;87.50;;
82711;SDS011;72433;41.992;21.438;2023-11-21T22:09:27;129.85;;;85.60;;
82711;SDS011;72433;41.992;21.438;2023-11-21T22:11:57;132.43;;;87.85;;